Time;durP1;ratioP1;P1;durP2;ratioP2;P2;SDS_P1;SDS_P2;PMS_P1;PMS_P2;Temp;Humidity;BMP_temperature;BMP_pressure;BME280_temperature;BME280_humidity;BME280_pressure;Samples;Min_cycle;Max_cycle;Signal;HPM_P1;HPM_P2
2022/05/13 00:02:23;;;;;;;7.45;3.87;;;;;;;25.38;38.36;100410.44;5381786;32;34654;-73
2022/05/13 00:05:26;;;;;;;7.35;3.70;;;;;;;26.27;36.83;100418.31;5384537;32;36722;-72
2022/05/13 00:08:28;;;;;;;8.32;4.10;;;;;;;26.62;36.31;100420.03;5385245;32;35182;-65
2022/05/13 00:11:30;;;;;;;6.75;3.87;;;;;;;25.85;37.67;100416.37;5379303;32;35426;-73
2022/05/13 00:14:32;;;;;;;10.50;4.15;;;;;;;25.49;38.43;100420.94;5383218;32;35508;-66
2022/05/13 00:17:34;;;;;;;7.68;3.83;;;;;;;25.39;38.73;100426.44;5381552;32;34213;-73
2022/05/13 00:20:37;;;;;;;8.52;3.80;;;;;;;26.19;37.02;100431.75;5396739;32;35148;-65
2022/05/13 00:23:39;;;;;;;8.32;3.90;;;;;;;26.26;37.05;100430.09;5374642;32;35439;-72
2022/05/13 00:26:41;;;;;;;;;;;;;;;26.37;36.72;100435.22;5392247;32;34645;-66
2022/05/13 00:29:43;;;;;;;8.73;3.58;;;;;;;26.15;36.64;100438.47;5383699;32;34657;-66
2022/05/13 00:32:47;;;;;;;5.57;3.20;;;;;;;25.91;36.79;100437.31;5390786;32;34813;-65
2022/05/13 00:35:49;;;;;;;5.28;3.00;;;;;;;25.71;36.38;100430.41;5375910;32;46579;-73
2022/05/13 00:38:51;;;;;;;5.37;3.17;;;;;;;26.06;36.07;100431.31;5384436;32;34790;-66
2022/05/13 00:41:53;;;;;;;6.28;3.45;;;;;;;25.67;36.29;100429.00;5396856;32;34814;-74
2022/05/13 00:44:57;;;;;;;4.45;2.90;;;;;;;26.06;35.89;100432.16;5384774;32;36462;-73
2022/05/13 00:48:00;;;;;;;4.97;2.72;;;;;;;25.85;35.76;100437.94;5384275;32;34905;-73
2022/05/13 00:51:03;;;;;;;;;;;;;;;25.08;37.20;100433.19;5382811;32;33887;-64
2022/05/13 00:54:07;;;;;;;4.90;2.83;;;;;;;24.86;37.76;100434.44;5388218;32;34714;-65
2022/05/13 00:57:11;;;;;;;5.35;2.90;;;;;;;25.81;36.21;100431.16;5379210;32;34716;-65
2022/05/13 01:00:14;;;;;;;6.85;3.28;;;;;;;25.90;35.78;100446.38;5368017;32;36482;-72
2022/05/13 01:03:17;;;;;;;6.90;3.22;;;;;;;25.51;36.77;100451.25;5400027;32;35134;-73
2022/05/13 01:06:22;;;;;;;7.53;2.85;;;;;;;25.48;37.02;100453.41;5351095;32;47142;-67
2022/05/13 01:09:27;;;;;;;6.85;2.78;;;;;;;25.26;37.45;100446.66;5387439;32;34793;-74
2022/05/13 01:12:35;;;;;;;5.47;2.90;;;;;;;24.82;37.56;100444.63;5357706;32;34347;-73
2022/05/13 01:15:39;;;;;;;3.53;2.22;;;;;;;24.26;38.94;100428.59;5361177;32;34050;-65
2022/05/13 01:18:43;;;;;;;4.05;2.10;;;;;;;25.58;36.00;100419.19;5386647;32;34617;-66
2022/05/13 01:21:49;;;;;;;5.75;2.92;;;;;;;25.35;35.84;100425.03;5379645;32;35250;-74
2022/05/13 01:24:51;;;;;;;3.75;2.37;;;;;;;25.61;35.44;100435.00;5384216;32;44725;-66
2022/05/13 01:27:55;;;;;;;3.58;2.50;;;;;;;25.53;35.60;100438.47;5382549;32;35245;-74
2022/05/13 01:30:59;;;;;;;5.62;2.30;;;;;;;25.41;35.74;100436.19;5394072;32;34842;-65
2022/05/13 01:34:07;;;;;;;3.20;2.00;;;;;;;24.65;37.44;100423.94;5390089;32;34754;-73
2022/05/13 01:37:09;;;;;;;4.37;2.15;;;;;;;24.80;37.21;100424.28;5382034;32;35716;-67
2022/05/13 01:40:12;;;;;;;5.32;2.67;;;;;;;24.77;37.18;100435.31;5397619;32;36556;-72
2022/05/13 01:43:15;;;;;;;4.82;2.37;;;;;;;25.27;35.54;100430.34;5359848;32;34465;-74
2022/05/13 01:46:18;;;;;;;7.18;2.47;;;;;;;24.60;36.90;100426.22;5383211;32;34898;-74
2022/05/13 01:49:21;;;;;;;5.72;2.95;;;;;;;24.78;36.60;100410.97;5359091;32;44436;-65
2022/05/13 01:52:23;;;;;;;2.80;2.10;;;;;;;25.97;34.32;100422.38;5366822;32;34701;-75
2022/05/13 01:55:25;;;;;;;24.98;3.78;;;;;;;24.36;36.70;100413.34;5373372;32;37758;-65
2022/05/13 01:58:28;;;;;;;2.75;1.90;;;;;;;24.48;36.51;100414.84;5364661;32;34843;-65
2022/05/13 02:01:30;;;;;;;4.28;2.20;;;;;;;24.29;36.86;100418.41;5380158;32;34482;-66
2022/05/13 02:04:32;;;;;;;7.47;2.67;;;;;;;25.26;35.21;100409.84;5385324;32;34749;-72
2022/05/13 02:07:34;;;;;;;4.53;2.50;;;;;;;24.85;35.95;100413.91;5380272;32;34249;-73
2022/05/13 02:10:36;;;;;;;4.05;2.10;;;;;;;24.25;37.47;100432.28;5383032;32;34760;-73
2022/05/13 02:13:39;;;;;;;6.32;2.55;;;;;;;23.39;39.12;100416.19;5352085;32;34588;-64
2022/05/13 02:16:41;;;;;;;3.47;2.17;;;;;;;23.99;38.09;100408.75;5378561;32;34696;-64
2022/05/13 02:19:43;;;;;;;6.18;2.30;;;;;;;23.90;38.72;100411.50;5384140;32;35282;-65
2022/05/13 02:22:45;;;;;;;6.47;2.60;;;;;;;23.28;40.60;100419.00;5391226;32;34980;-73
2022/05/13 02:25:50;;;;;;;3.62;2.28;;;;;;;22.69;42.49;100411.84;5368010;32;35565;-65
2022/05/13 02:28:52;;;;;;;6.80;2.42;;;;;;;22.96;42.37;100413.87;5398310;32;44449;-74
2022/05/13 02:31:54;;;;;;;6.10;2.30;;;;;;;22.93;42.81;100415.03;5379023;32;35459;-73
2022/05/13 02:34:56;;;;;;;6.70;2.75;;;;;;;23.37;42.09;100409.25;5386356;32;35454;-73
2022/05/13 02:37:59;;;;;;;4.57;2.40;;;;;;;22.90;43.61;100414.44;5381997;32;35052;-65
2022/05/13 02:41:14;;;;;;;6.50;2.47;;;;;;;22.99;43.65;100413.59;5381928;32;35052;-73
2022/05/13 02:44:16;;;;;;;7.25;2.80;;;;;;;23.16;43.71;100420.97;5392047;32;34186;-66
2022/05/13 02:47:19;;;;;;;4.90;2.28;;;;;;;22.45;45.80;100425.56;5365920;32;46989;-66
2022/05/13 02:50:25;;;;;;;6.32;2.85;;;;;;;22.39;46.14;100426.94;5395102;32;34480;-67
2022/05/13 02:53:28;;;;;;;6.18;2.78;;;;;;;22.66;45.71;100423.66;5371919;32;34976;-73
2022/05/13 02:56:30;;;;;;;13.38;3.47;;;;;;;22.64;45.69;100414.91;5381192;32;34096;-75
2022/05/13 02:59:32;;;;;;;5.07;2.47;;;;;;;22.77;45.48;100424.53;5399680;32;34097;-67
2022/05/13 03:02:34;;;;;;;6.00;2.95;;;;;;;22.32;46.42;100430.31;5379223;32;35002;-67
2022/05/13 03:05:36;;;;;;;10.70;2.90;;;;;;;22.48;46.30;100428.00;5382430;32;34808;-74
2022/05/13 03:08:38;;;;;;;;;;;;;;;22.92;45.25;100433.91;5369633;32;34883;-75
2022/05/13 03:11:40;;;;;;;6.57;2.50;;;;;;;23.06;44.74;100433.53;5377237;32;35446;-74
2022/05/13 03:14:43;;;;;;;4.65;2.50;;;;;;;23.29;44.02;100441.28;5381330;32;34360;-65
2022/05/13 03:17:45;;;;;;;7.22;2.85;;;;;;;22.82;44.64;100454.44;5382044;32;35178;-72
2022/05/13 03:20:47;;;;;;;7.15;2.45;;;;;;;23.51;42.42;100465.16;5382288;32;34207;-65
2022/05/13 03:23:49;;;;;;;5.70;2.53;;;;;;;23.25;42.89;100475.59;5370971;32;44748;-73
2022/05/13 03:26:51;;;;;;;;;;;;;;;23.26;42.39;100463.87;5390342;32;35111;-74
2022/05/13 03:29:53;;;;;;;3.92;2.12;;;;;;;23.15;42.41;100478.25;5383392;32;34719;-66
2022/05/13 03:32:55;;;;;;;4.15;2.37;;;;;;;23.04;42.56;100483.72;5391581;32;36376;-73
2022/05/13 03:35:58;;;;;;;4.18;2.30;;;;;;;23.12;42.45;100478.53;5380057;32;34910;-74
2022/05/13 03:39:00;;;;;;;4.25;2.28;;;;;;;23.44;41.30;100480.97;5384436;32;34666;-68
2022/05/13 03:42:03;;;;;;;5.15;2.50;;;;;;;23.26;41.15;100476.44;5397879;32;34948;-74
2022/05/13 03:45:07;;;;;;;5.18;2.47;;;;;;;23.20;41.34;100476.00;5384023;32;34145;-74
2022/05/13 03:48:09;;;;;;;6.03;2.75;;;;;;;22.91;42.26;100469.72;5399658;32;34983;-73
2022/05/13 03:51:11;;;;;;;;;;;;;;;23.37;41.28;100474.44;5383158;32;34960;-73
2022/05/13 03:54:13;;;;;;;5.57;2.47;;;;;;;23.42;41.67;100479.41;5392733;32;34277;-74
2022/05/13 03:57:15;;;;;;;5.68;2.50;;;;;;;23.04;42.69;100499.81;5391783;32;34346;-74
2022/05/13 04:00:18;;;;;;;5.15;2.50;;;;;;;23.00;43.05;100509.13;5382868;32;34890;-65
2022/05/13 04:03:20;;;;;;;7.00;2.75;;;;;;;23.40;42.11;100510.91;5385143;32;47008;-65
2022/05/13 04:09:43;;;;;;;5.37;2.87;;;;;;;23.17;42.98;100500.41;5400174;32;34627;-73
2022/05/13 04:16:06;;;;;;;7.60;2.85;;;;;;;22.36;45.72;100525.44;5382442;32;35318;-73
2022/05/13 04:19:08;;;;;;;;;;;;;;;22.31;46.35;100508.94;5387411;32;35352;-74
2022/05/13 04:22:13;;;;;;;8.50;2.78;;;;;;;21.93;48.37;100521.03;5378919;32;35882;-66
2022/05/13 04:25:15;;;;;;;9.52;3.28;;;;;;;21.88;48.85;100517.91;5383234;32;35441;-65
2022/05/13 04:28:17;;;;;;;7.90;3.40;;;;;;;22.40;47.96;100517.00;5385636;32;34543;-74
2022/05/13 04:31:22;;;;;;;8.73;3.10;;;;;;;22.39;48.74;100511.78;5388945;32;44842;-67
2022/05/13 04:34:24;;;;;;;11.63;3.33;;;;;;;21.78;50.69;100507.16;5394858;32;35507;-66
2022/05/13 04:37:27;;;;;;;12.13;3.47;;;;;;;21.32;52.60;100515.47;5367715;32;34545;-73
2022/05/13 04:40:29;;;;;;;16.85;3.60;;;;;;;21.40;52.85;100518.34;5398599;32;35489;-65
2022/05/13 04:43:34;;;;;;;7.00;3.37;;;;;;;21.61;52.17;100543.31;5383950;32;34657;-73
2022/05/13 04:46:37;;;;;;;11.40;4.45;;;;;;;21.89;52.09;100533.81;5397387;32;36022;-74
2022/05/13 04:49:39;;;;;;;7.82;3.15;;;;;;;22.41;50.17;100518.72;5370611;32;35500;-73
2022/05/13 04:52:41;;;;;;;8.70;3.87;;;;;;;21.66;52.22;100510.00;5371816;32;34638;-65
2022/05/13 04:55:44;;;;;;;5.50;2.70;;;;;;;21.79;52.20;100499.97;5395396;32;34270;-73
2022/05/13 04:58:47;;;;;;;8.60;3.40;;;;;;;21.71;52.41;100502.44;5384144;32;34813;-65
2022/05/13 05:01:49;;;;;;;5.87;3.20;;;;;;;21.61;52.80;100495.16;5396424;32;44885;-74
2022/05/13 05:04:51;;;;;;;6.28;3.30;;;;;;;21.93;51.81;100514.84;5384412;32;34872;-66
2022/05/13 05:07:54;;;;;;;7.72;3.55;;;;;;;22.04;51.42;100526.34;5396342;32;35246;-73
2022/05/13 05:10:57;;;;;;;6.90;3.60;;;;;;;21.76;52.38;100532.31;5360741;32;34624;-66
2022/05/13 05:13:59;;;;;;;6.82;3.03;;;;;;;21.98;51.50;100540.25;5371388;32;35441;-66
2022/05/13 05:17:02;;;;;;;;;;;;;;;22.22;50.58;100544.50;5392148;32;35989;-74
2022/05/13 05:20:05;;;;;;;9.80;3.60;;;;;;;22.54;49.70;100550.66;5382792;32;34966;-68
2022/05/13 05:23:07;;;;;;;9.95;4.07;;;;;;;23.64;46.78;100538.19;5372699;32;34601;-71
2022/05/13 05:26:11;;;;;;;10.88;3.47;;;;;;;22.14;50.59;100548.69;5371720;32;35067;-67
2022/05/13 05:29:13;;;;;;;9.18;3.40;;;;;;;22.71;49.33;100554.53;5383932;32;33991;-72
2022/05/13 05:32:15;;;;;;;17.12;4.18;;;;;;;22.32;50.34;100550.78;5375389;32;34129;-71
2022/05/13 05:35:21;;;;;;;12.55;3.67;;;;;;;22.75;49.04;100555.97;5366964;32;35540;-72
2022/05/13 05:38:23;;;;;;;9.25;3.85;;;;;;;23.31;47.36;100563.50;5381319;32;44438;-71
2022/05/13 05:41:26;;;;;;;8.45;3.35;;;;;;;22.93;48.56;100569.63;5367949;32;35848;-67
2022/05/13 05:44:29;;;;;;;7.85;3.35;;;;;;;22.51;49.42;100563.44;5390056;32;35192;-68
2022/05/13 05:47:31;;;;;;;;;;;;;;;23.24;47.58;100571.25;5373123;32;34338;-74
2022/05/13 05:50:33;;;;;;;9.05;2.80;;;;;;;23.82;46.36;100572.37;5397270;32;35473;-73
2022/05/13 05:57:13;;;;;;;8.82;2.75;;;;;;;24.06;44.98;100570.09;5354921;32;45899;-72
2022/05/13 06:00:17;;;;;;;8.32;2.80;;;;;;;24.08;45.04;100576.19;5382143;32;33797;-74
2022/05/13 06:03:19;;;;;;;6.18;2.72;;;;;;;24.99;42.83;100568.47;5357995;32;45227;-71
2022/05/13 06:06:22;;;;;;;9.15;2.70;;;;;;;26.70;39.31;100560.22;5377763;32;36356;-75
2022/05/13 06:09:24;;;;;;;6.82;2.50;;;;;;;26.71;38.83;100574.56;5368354;32;35370;-66
2022/05/13 06:12:26;;;;;;;7.22;2.70;;;;;;;26.11;39.34;100569.91;5350315;32;34003;-66
2022/05/13 06:15:29;;;;;;;6.28;2.60;;;;;;;25.96;39.30;100578.72;5379059;32;35869;-68
2022/05/13 06:18:31;;;;;;;7.62;2.78;;;;;;;24.66;42.77;100577.94;5367528;32;33866;-66
2022/05/13 06:21:36;;;;;;;6.93;2.85;;;;;;;25.54;40.80;100582.78;5384667;32;35324;-67
2022/05/13 06:24:39;;;;;;;3.15;2.42;;;;;;;26.28;38.64;100578.12;5359608;32;35217;-73
2022/05/13 06:27:44;;;;;;;4.57;2.17;;;;;;;25.51;40.51;100591.19;5381210;32;35464;-67
2022/05/13 06:30:47;;;;;;;5.85;2.40;;;;;;;25.95;39.41;100585.06;5369708;32;34250;-72
2022/05/13 06:33:49;;;;;;;;;;;;;;;27.76;35.96;100576.03;5366997;32;46111;-67
2022/05/13 06:36:51;;;;;;;4.85;2.22;;;;;;;27.10;36.37;100572.25;5368404;32;34357;-67
2022/05/13 06:39:53;;;;;;;4.12;2.08;;;;;;;26.59;37.58;100573.13;5367750;32;34288;-70
2022/05/13 06:42:58;;;;;;;7.25;2.37;;;;;;;25.85;38.77;100571.69;5376735;32;34162;-68
2022/05/13 06:46:00;;;;;;;9.38;2.70;;;;;;;26.16;38.41;100566.75;5369188;32;33854;-67
2022/05/13 06:49:04;;;;;;;6.78;2.22;;;;;;;28.12;35.06;100568.44;5365180;32;34093;-77
2022/05/13 06:52:06;;;;;;;7.50;2.35;;;;;;;27.87;35.13;100572.16;5377166;32;35285;-83
2022/05/13 06:55:29;;;;;;;6.53;2.80;;;;;;;25.58;39.39;100567.19;5361802;32;44790;-68
2022/05/13 06:58:31;;;;;;;5.95;2.47;;;;;;;25.97;38.85;100565.09;5380073;32;35143;-67
2022/05/13 07:01:34;;;;;;;8.15;2.80;;;;;;;25.45;40.27;100583.72;5367715;32;34169;-75
2022/05/13 07:04:37;;;;;;;5.45;2.40;;;;;;;25.14;41.38;100593.94;5389405;32;34047;-67
2022/05/13 07:07:39;;;;;;;;;;;;;;;25.00;40.51;100580.94;5374272;32;34335;-66
2022/05/13 07:10:42;;;;;;;9.40;2.80;;;;;;;25.13;39.07;100592.25;5375815;32;33922;-87
2022/05/13 07:13:45;;;;;;;5.22;2.05;;;;;;;25.15;39.32;100594.78;5376434;32;36187;-75
2022/05/13 07:16:49;;;;;;;6.05;2.20;;;;;;;24.41;39.54;100595.53;5383451;32;35532;-65
2022/05/13 07:19:51;;;;;;;5.97;2.35;;;;;;;23.98;40.43;100604.88;5389726;32;46809;-78
2022/05/13 07:22:55;;;;;;;7.20;2.55;;;;;;;24.34;40.25;100592.56;5372234;32;34055;-77
2022/05/13 07:25:58;;;;;;;7.00;2.70;;;;;;;24.43;40.28;100593.56;5388722;32;34585;-67
2022/05/13 07:29:00;;;;;;;7.12;2.40;;;;;;;24.89;39.43;100584.66;5363434;32;35105;-77
2022/05/13 07:32:06;;;;;;;7.47;2.80;;;;;;;24.48;40.40;100584.09;5365798;32;34185;-70
2022/05/13 07:35:09;;;;;;;10.15;2.58;;;;;;;24.83;39.22;100578.03;5380887;32;34246;-79
2022/05/13 07:38:11;;;;;;;6.68;2.08;;;;;;;26.40;36.03;100584.97;5376893;32;33677;-77
2022/05/13 07:41:19;;;;;;;16.20;3.92;;;;;;;27.14;34.13;100580.88;5383083;32;33836;-65
2022/05/13 07:44:21;;;;;;;5.70;2.22;;;;;;;28.09;33.20;100570.66;5375531;32;44259;-75
2022/05/13 07:47:23;;;;;;;6.15;2.17;;;;;;;28.33;32.17;100574.19;5385687;32;35371;-67
2022/05/13 07:50:26;;;;;;;5.28;2.45;;;;;;;29.30;30.49;100574.09;5384958;32;33620;-68
2022/05/13 07:53:28;;;;;;;7.50;2.33;;;;;;;29.48;30.56;100573.84;5378133;32;35780;-73
2022/05/13 07:56:30;;;;;;;4.50;2.05;;;;;;;27.65;33.11;100585.25;5358064;32;34204;-73
2022/05/13 08:00:24;;;;;;;6.50;1.90;;;;;;;28.78;30.48;100582.72;5356312;32;36100;-73
2022/05/13 08:03:00;;;;;;;4.55;2.08;;;;;;;27.27;33.14;100590.22;5382469;32;44405;-66
2022/05/13 08:06:03;;;;;;;7.00;2.47;;;;;;;26.73;34.86;100594.13;5375178;32;33880;-66
2022/05/13 08:09:05;;;;;;;4.32;2.17;;;;;;;26.52;35.51;100591.78;5381880;32;35014;-66
2022/05/13 08:12:08;;;;;;;5.18;2.05;;;;;;;27.07;34.67;100601.41;5379009;32;32797;-73
2022/05/13 08:15:10;;;;;;;6.68;2.40;;;;;;;27.13;34.54;100603.47;5382872;32;35374;-76
2022/05/13 08:18:13;;;;;;;;;;;;;;;27.02;34.70;100603.72;5392465;32;35382;-80
2022/05/13 08:21:16;;;;;;;4.62;2.10;;;;;;;26.86;35.07;100609.87;5352055;32;35546;-68
2022/05/13 08:24:18;;;;;;;;;;;;;;;26.36;35.85;100611.38;5373942;32;33895;-74
2022/05/13 08:27:20;;;;;;;5.57;2.15;;;;;;;24.43;39.29;100615.06;5383112;32;44278;-67
2022/05/13 08:30:22;;;;;;;5.60;2.42;;;;;;;24.68;39.65;100624.34;5376026;32;35549;-71
2022/05/13 08:33:24;;;;;;;7.40;2.03;;;;;;;25.25;38.60;100628.72;5388882;32;34496;-70
2022/05/13 08:36:26;;;;;;;5.85;2.90;;;;;;;23.92;41.65;100626.91;5367037;32;34311;-70
2022/05/13 08:39:29;;;;;;;7.07;2.35;;;;;;;24.42;41.17;100626.81;5397119;32;35561;-69
2022/05/13 08:42:51;;;;;;;4.80;2.28;;;;;;;24.68;40.57;100632.41;5379119;32;46343;-72
2022/05/13 08:45:56;;;;;;;10.13;4.10;;;;;;;24.45;41.37;100629.19;5387434;32;34252;-67
2022/05/13 08:49:20;;;;;;;4.53;2.45;;;;;;;24.87;40.40;100626.97;5374439;32;35960;-70
2022/05/13 08:56:08;;;;;;;5.78;2.42;;;;;;;25.75;39.05;100625.59;5389803;32;34448;-66
2022/05/13 08:59:27;;;;;;;6.72;2.70;;;;;;;26.52;37.29;100617.91;5370237;32;35669;-70
2022/05/13 09:02:36;;;;;;;10.70;2.50;;;;;;;27.50;35.49;100617.44;5359908;32;34238;-76
2022/05/13 09:06:08;;;;;;;7.20;2.40;;;;;;;28.18;34.25;100607.44;5382665;32;34720;-78
2022/05/13 09:09:17;;;;;;;3.47;2.25;;;;;;;27.54;35.05;100610.69;5351967;32;34034;-66
2022/05/13 09:12:29;;;;;;;7.47;2.12;;;;;;;26.03;38.23;100604.00;5371858;32;33177;-66
2022/05/13 09:15:39;;;;;;;6.35;2.60;;;;;;;25.45;39.59;100607.94;5390258;32;36147;-65
2022/05/13 09:19:11;;;;;;;4.55;2.12;;;;;;;25.52;39.41;100600.94;5369125;32;34344;-65
2022/05/13 09:22:13;;;;;;;6.72;2.40;;;;;;;28.44;33.62;100593.78;5392777;32;35430;-66
2022/05/13 09:25:26;;;;;;;9.52;2.87;;;;;;;27.81;34.69;100600.66;5380375;32;34501;-71
2022/05/13 09:28:33;;;;;;;7.97;2.20;;;;;;;27.45;35.46;100598.19;5379999;32;34234;-71
2022/05/13 09:31:39;;;;;;;11.20;3.08;;;;;;;26.98;36.55;100598.66;5391159;32;35256;-71
2022/05/13 09:34:53;;;;;;;11.73;3.58;;;;;;;26.29;38.06;100604.06;5363676;32;34124;-72
2022/05/13 09:37:55;;;;;;;7.85;2.35;;;;;;;27.43;36.15;100593.94;5376242;32;44791;-69
2022/05/13 09:41:01;;;;;;;5.07;2.40;;;;;;;27.17;36.29;100602.97;5375172;32;34076;-67
2022/05/13 09:44:09;;;;;;;6.55;3.17;;;;;;;25.81;39.14;100606.16;5375829;32;35168;-69
2022/05/13 09:47:17;;;;;;;6.55;2.40;;;;;;;26.80;37.35;100610.53;5383694;32;34155;-65
2022/05/13 09:50:42;;;;;;;4.22;2.33;;;;;;;26.08;38.88;100612.44;5379027;32;34606;-70
2022/05/13 09:54:01;;;;;;;7.37;2.75;;;;;;;25.95;39.34;100620.06;5383057;32;35395;-70
2022/05/13 09:57:28;;;;;;;17.02;2.55;;;;;;;25.14;41.32;100618.12;5370426;32;37175;-70
2022/05/13 10:00:32;;;;;;;7.37;2.30;;;;;;;26.40;39.01;100610.06;5370713;32;34232;-67
2022/05/13 10:03:38;;;;;;;4.72;2.28;;;;;;;27.39;37.07;100616.91;5384183;32;35633;-67
2022/05/13 10:06:42;;;;;;;5.40;2.15;;;;;;;27.20;37.55;100612.59;5368292;32;36843;-65
2022/05/13 10:16:49;;;;;;;5.18;2.67;;;;;;;27.31;38.75;100603.34;5377829;32;34202;-65
2022/05/13 10:19:57;;;;;;;5.15;2.50;;;;;;;26.37;40.91;100613.03;5376273;32;46198;-67
2022/05/13 10:23:32;;;;;;;5.30;2.80;;;;;;;25.45;43.03;100607.09;5366718;32;35295;-70
2022/05/13 10:26:37;;;;;;;6.93;2.85;;;;;;;26.00;41.90;100607.00;5351759;32;34442;-69
2022/05/13 10:29:43;;;;;;;8.45;2.80;;;;;;;25.70;42.81;100600.97;5379713;32;34865;-67
2022/05/13 10:33:21;;;;;;;5.85;2.78;;;;;;;26.37;41.55;100591.50;5358618;32;35341;-68
2022/05/13 10:37:07;;;;;;;6.97;2.92;;;;;;;26.81;40.60;100596.03;5339467;32;34075;-69
2022/05/13 10:40:16;;;;;;;5.15;2.62;;;;;;;26.69;41.11;100590.06;5342279;32;34237;-67
2022/05/13 10:43:56;;;;;;;7.10;2.80;;;;;;;27.66;38.83;100597.75;5348217;32;283148;-67
2022/05/13 10:47:01;;;;;;;8.18;3.17;;;;;;;28.01;38.32;100591.22;5337588;32;35413;-65
2022/05/13 10:50:22;;;;;;;4.60;2.65;;;;;;;28.87;36.67;100579.00;5362869;32;34059;-68
2022/05/13 10:53:47;;;;;;;8.85;3.05;;;;;;;30.87;32.73;100573.56;5351601;32;44825;-68
2022/05/13 10:57:06;;;;;;;4.05;2.30;;;;;;;31.99;30.84;100568.66;5389778;32;47127;-68
2022/05/13 11:00:27;;;;;;;5.50;2.78;;;;;;;30.60;32.75;100566.91;5367467;32;34130;-70
2022/05/13 11:03:48;;;;;;;;;;;;;;;31.71;30.66;100574.00;5386676;32;34306;-70
2022/05/13 11:07:38;;;;;;;10.52;2.50;;;;;;;30.06;33.31;100567.88;5391572;32;47273;-69
2022/05/13 11:10:43;;;;;;;3.92;2.30;;;;;;;31.08;31.31;100570.94;5300106;32;34344;-68
2022/05/13 11:13:59;;;;;;;4.70;2.35;;;;;;;30.20;32.85;100571.66;5363024;32;34134;-67
2022/05/13 11:17:17;;;;;;;8.77;2.72;;;;;;;30.82;32.11;100573.28;5382699;32;33276;-68
2022/05/13 11:20:23;;;;;;;6.07;2.60;;;;;;;31.99;28.90;100560.50;5381757;32;44848;-68
2022/05/13 11:23:40;;;;;;;6.70;2.17;;;;;;;29.90;31.60;100552.59;5383491;32;35358;-72
2022/05/13 11:26:54;;;;;;;7.18;2.30;;;;;;;31.72;28.40;100537.63;5359783;32;34170;-71
2022/05/13 11:30:12;;;;;;;8.45;3.30;;;;;;;30.75;28.51;100551.50;5389751;32;44412;-70
2022/05/13 11:33:49;;;;;;;5.28;2.08;;;;;;;31.94;27.52;100536.63;5375968;32;34230;-67
2022/05/13 11:37:02;;;;;;;6.80;2.37;;;;;;;31.88;27.81;100537.44;5377191;32;36040;-69
2022/05/13 11:40:35;;;;;;;5.90;2.47;;;;;;;29.85;31.08;100548.75;5367957;32;35167;-67
2022/05/13 11:43:57;;;;;;;10.82;2.80;;;;;;;30.36;30.73;100538.16;5386512;32;35722;-67
2022/05/13 11:47:14;;;;;;;6.68;4.20;;;;;;;30.61;30.41;100545.00;5365415;32;36673;-75
2022/05/13 11:50:17;;;;;;;6.32;2.50;;;;;;;30.12;31.54;100533.81;5380870;32;35087;-72
2022/05/13 11:53:41;;;;;;;6.07;2.40;;;;;;;30.56;30.91;100544.72;5365135;32;44660;-71
2022/05/13 11:56:46;;;;;;;6.82;2.62;;;;;;;28.54;34.59;100548.50;5378222;32;36493;-72
2022/05/13 11:59:54;;;;;;;5.90;2.87;;;;;;;27.91;35.67;100541.94;5393297;32;44438;-70
2022/05/13 12:03:09;;;;;;;8.25;2.65;;;;;;;28.13;35.60;100531.44;5384107;32;35009;-71
2022/05/13 12:06:15;;;;;;;9.32;2.53;;;;;;;27.40;36.47;100551.97;5397570;32;34948;-71
2022/05/13 12:09:21;;;;;;;;;;;;;;;27.16;37.42;100552.72;5389241;32;35406;-72
2022/05/13 12:13:02;;;;;;;6.07;2.58;;;;;;;26.67;38.72;100562.44;5357238;32;44799;-72
2022/05/13 12:16:26;;;;;;;7.10;2.20;;;;;;;26.54;38.38;100562.00;5384924;32;35068;-70
2022/05/13 12:20:01;;;;;;;4.53;2.20;;;;;;;26.62;37.98;100562.87;5387246;32;37212;-70
2022/05/13 12:23:14;;;;;;;9.63;2.20;;;;;;;25.76;39.75;100569.91;5371876;32;35101;-71
2022/05/13 12:26:22;;;;;;;3.37;2.35;;;;;;;26.17;37.42;100565.75;5376285;32;35081;-71
2022/05/13 12:29:42;;;;;;;6.53;2.47;;;;;;;25.63;38.01;100570.25;5388137;32;44622;-74
2022/05/13 12:32:47;;;;;;;4.70;2.17;;;;;;;26.42;37.13;100569.50;5392009;32;34948;-72
2022/05/13 12:39:21;;;;;;;3.65;2.03;;;;;;;26.09;36.55;100554.91;5383521;32;34686;-71
2022/05/13 12:42:44;;;;;;;5.70;2.10;;;;;;;25.60;36.45;100547.19;5395852;32;46986;-71
2022/05/13 12:46:14;;;;;;;4.90;2.20;;;;;;;26.13;35.24;100548.19;5386597;32;34516;-70
2022/05/13 12:49:26;;;;;;;7.35;2.22;;;;;;;25.83;35.70;100544.94;5382799;32;34429;-71
2022/05/13 12:52:29;;;;;;;;;;;;;;;26.24;33.82;100521.00;5387755;32;36602;-70
2022/05/13 12:55:39;;;;;;;3.75;1.90;;;;;;;25.53;33.81;100531.81;5383638;32;34827;-70
2022/05/13 12:58:44;;;;;;;5.43;2.60;;;;;;;24.89;33.86;100527.38;5395539;32;35091;-71
2022/05/13 13:01:50;;;;;;;5.43;2.00;;;;;;;25.36;33.51;100528.94;5363688;32;34168;-70
2022/05/13 13:05:04;;;;;;;3.90;2.00;;;;;;;25.24;34.40;100549.00;5401462;32;46425;-71
2022/05/13 13:08:16;;;;;;;5.25;1.90;;;;;;;24.92;35.24;100535.97;5367823;32;34082;-72
2022/05/13 13:11:39;;;;;;;5.30;2.03;;;;;;;24.68;36.20;100539.19;5374043;32;34188;-71
2022/05/13 13:15:08;;;;;;;5.20;2.17;;;;;;;25.23;36.08;100543.75;5383153;32;35994;-70
2022/05/13 13:18:12;;;;;;;7.40;2.28;;;;;;;24.99;37.44;100526.34;5370911;32;35254;-72
2022/05/13 13:21:15;;;;;;;5.05;2.20;;;;;;;24.50;38.84;100536.41;5393884;32;34726;-71
2022/05/13 13:24:20;;;;;;;9.65;2.85;;;;;;;23.80;40.78;100523.38;5347469;32;34551;-73
2022/05/13 13:27:25;;;;;;;12.13;2.00;;;;;;;24.75;38.97;100524.16;5365132;32;44894;-70
2022/05/13 13:30:28;;;;;;;3.53;1.92;;;;;;;25.18;38.37;100527.22;5386203;32;35214;-71
2022/05/13 13:33:47;;;;;;;4.05;2.03;;;;;;;24.13;40.20;100517.53;5363696;32;35541;-70
2022/05/13 13:36:51;;;;;;;5.28;1.92;;;;;;;24.37;38.93;100505.50;5378731;32;47037;-71
2022/05/13 13:40:23;;;;;;;3.83;1.70;;;;;;;23.26;41.25;100492.53;5372513;32;34985;-70
2022/05/13 13:43:28;;;;;;;6.65;1.80;;;;;;;24.76;38.26;100492.75;5367099;32;44960;-72
2022/05/13 13:46:34;;;;;;;5.50;1.83;;;;;;;24.89;37.97;100497.78;5377557;32;34611;-71
2022/05/13 13:49:38;;;;;;;4.45;1.70;;;;;;;24.79;38.10;100493.28;5365937;32;35272;-70
2022/05/13 13:52:41;;;;;;;4.62;1.90;;;;;;;23.61;40.65;100484.81;5382447;32;34692;-69
2022/05/13 13:55:44;;;;;;;4.30;1.70;;;;;;;23.83;40.31;100478.31;5365110;32;35159;-71
2022/05/13 13:59:08;;;;;;;6.37;2.05;;;;;;;24.12;39.88;100472.88;5382609;32;34089;-70
2022/05/13 14:02:11;;;;;;;3.67;1.90;;;;;;;24.17;40.03;100464.41;5390557;32;34135;-70
2022/05/13 14:05:21;;;;;;;9.75;2.40;;;;;;;24.52;39.31;100447.59;5382647;32;34218;-71
2022/05/13 14:08:26;;;;;;;9.07;1.75;;;;;;;24.79;38.80;100433.31;5397798;32;44470;-70
2022/05/13 14:11:29;;;;;;;3.33;1.67;;;;;;;25.01;38.30;100437.44;5364935;32;34851;-70
2022/05/13 14:14:54;;;;;;;4.75;1.50;;;;;;;25.26;38.39;100458.25;5363850;32;47125;-70
2022/05/13 14:17:56;;;;;;;4.15;1.77;;;;;;;25.41;39.11;100472.00;5378710;32;35224;-70
2022/05/13 14:21:23;;;;;;;10.02;1.98;;;;;;;22.68;45.85;100471.75;5355289;32;34831;-71
2022/05/13 14:24:48;;;;;;;5.40;1.85;;;;;;;23.98;43.46;100467.97;5372703;32;45090;-69
2022/05/13 14:27:52;;;;;;;7.78;2.12;;;;;;;23.54;43.84;100467.56;5370457;32;47072;-71
2022/05/13 14:31:04;;;;;;;5.72;1.73;;;;;;;24.22;41.82;100462.97;5369450;32;35034;-70
2022/05/13 14:34:20;;;;;;;5.30;2.28;;;;;;;23.51;43.18;100465.16;5383504;32;35557;-72
2022/05/13 14:37:31;;;;;;;5.75;2.42;;;;;;;24.56;41.15;100451.69;5365506;32;44327;-72
2022/05/13 14:40:41;;;;;;;7.12;1.95;;;;;;;24.30;41.15;100416.56;5398566;32;34813;-70
2022/05/13 14:43:43;;;;;;;6.35;2.00;;;;;;;24.72;40.51;100405.34;5388522;32;34983;-70
2022/05/13 14:46:59;;;;;;;5.18;1.90;;;;;;;25.31;39.14;100385.13;5382406;32;34970;-69
2022/05/13 14:50:08;;;;;;;5.22;2.83;;;;;;;24.09;41.12;100389.94;5385686;32;35375;-71
2022/05/13 14:53:15;;;;;;;7.18;3.42;;;;;;;25.59;38.04;100383.19;5375521;32;34808;-70
2022/05/13 14:56:20;;;;;;;4.53;2.00;;;;;;;25.25;39.01;100391.16;5391873;32;44047;-70
2022/05/13 14:59:38;;;;;;;5.72;2.95;;;;;;;25.37;38.19;100396.16;5385637;32;34505;-70
2022/05/13 15:02:46;;;;;;;3.22;1.98;;;;;;;25.74;37.17;100389.72;5367205;32;35138;-71